sensor_id;sensor_type;location;lat;lon;timestamp;P1;durP1;ratioP1;P2;durP2;ratioP2
7675;SDS011;3880;51.464;-2.566;2022-12-26T00:01:35;9.30;;;3.33;;
7675;SDS011;3880;51.464;-2.566;2022-12-26T00:04:04;15.80;;;3.50;;
7675;SDS011;3880;51.464;-2.566;2022-12-26T00:06:31;12.43;;;3.23;;
7675;SDS011;3880;51.464;-2.566;2022-12-26T00:08:59;19.87;;;2.77;;
7675;SDS011;3880;51.464;-2.566;2022-12-26T00:11:27;8.67;;;2.27;;
7675;SDS011;3880;51.464;-2.566;2022-12-26T00:13:56;10.43;;;3.27;;
7675;SDS011;3880;51.464;-2.566;2022-12-26T00:16:25;7.70;;;2.80;;
7675;SDS011;3880;51.464;-2.566;2022-12-26T00:18:53;10.10;;;2.50;;
7675;SDS011;3880;51.464;-2.566;2022-12-26T00:21:20;10.10;;;2.93;;
7675;SDS011;3880;51.464;-2.566;2022-12-26T00:23:51;12.60;;;2.73;;
7675;SDS011;3880;51.464;-2.566;2022-12-26T00:26:19;12.67;;;3.23;;
7675;SDS011;3880;51.464;-2.566;2022-12-26T00:28:47;13.30;;;2.93;;
7675;SDS011;3880;51.464;-2.566;2022-12-26T00:31:16;10.07;;;2.30;;
7675;SDS011;3880;51.464;-2.566;2022-12-26T00:33:44;14.27;;;3.27;;
7675;SDS011;3880;51.464;-2.566;2022-12-26T00:36:12;9.20;;;2.93;;
7675;SDS011;3880;51.464;-2.566;2022-12-26T00:38:41;10.30;;;3.20;;
7675;SDS011;3880;51.464;-2.566;2022-12-26T00:41:10;11.03;;;2.10;;
7675;SDS011;3880;51.464;-2.566;2022-12-26T00:43:38;11.40;;;3.70;;
7675;SDS011;3880;51.464;-2.566;2022-12-26T00:46:05;10.27;;;3.40;;
7675;SDS011;3880;51.464;-2.566;2022-12-26T00:48:34;17.93;;;2.67;;
7675;SDS011;3880;51.464;-2.566;2022-12-26T00:51:01;17.33;;;3.93;;
7675;SDS011;3880;51.464;-2.566;2022-12-26T00:53:28;13.27;;;2.97;;
7675;SDS011;3880;51.464;-2.566;2022-12-26T00:55:55;15.63;;;3.47;;
7675;SDS011;3880;51.464;-2.566;2022-12-26T00:58:23;19.23;;;3.47;;
7675;SDS011;3880;51.464;-2.566;2022-12-26T01:00:50;12.27;;;2.67;;
7675;SDS011;3880;51.464;-2.566;2022-12-26T01:03:17;19.03;;;3.20;;
7675;SDS011;3880;51.464;-2.566;2022-12-26T01:05:47;24.57;;;3.73;;
7675;SDS011;3880;51.464;-2.566;2022-12-26T01:08:16;16.70;;;3.50;;
7675;SDS011;3880;51.464;-2.566;2022-12-26T01:10:44;14.80;;;2.80;;
7675;SDS011;3880;51.464;-2.566;2022-12-26T01:13:12;10.00;;;3.33;;
7675;SDS011;3880;51.464;-2.566;2022-12-26T01:15:39;10.83;;;2.60;;
7675;SDS011;3880;51.464;-2.566;2022-12-26T01:18:13;17.63;;;3.50;;
7675;SDS011;3880;51.464;-2.566;2022-12-26T01:20:40;11.70;;;2.40;;
7675;SDS011;3880;51.464;-2.566;2022-12-26T01:23:08;11.50;;;2.97;;
7675;SDS011;3880;51.464;-2.566;2022-12-26T01:25:35;5.60;;;2.30;;
7675;SDS011;3880;51.464;-2.566;2022-12-26T01:28:03;6.10;;;2.07;;
7675;SDS011;3880;51.464;-2.566;2022-12-26T01:30:31;9.73;;;3.03;;
7675;SDS011;3880;51.464;-2.566;2022-12-26T01:32:58;6.43;;;2.03;;
7675;SDS011;3880;51.464;-2.566;2022-12-26T01:35:26;8.03;;;2.73;;
7675;SDS011;3880;51.464;-2.566;2022-12-26T01:37:53;9.53;;;2.23;;
7675;SDS011;3880;51.464;-2.566;2022-12-26T01:40:21;6.53;;;2.50;;
7675;SDS011;3880;51.464;-2.566;2022-12-26T01:42:48;11.13;;;2.70;;
7675;SDS011;3880;51.464;-2.566;2022-12-26T01:45:25;8.93;;;2.63;;
7675;SDS011;3880;51.464;-2.566;2022-12-26T01:47:55;11.90;;;2.37;;
7675;SDS011;3880;51.464;-2.566;2022-12-26T01:50:29;9.70;;;2.57;;
7675;SDS011;3880;51.464;-2.566;2022-12-26T01:53:04;7.47;;;2.07;;
7675;SDS011;3880;51.464;-2.566;2022-12-26T01:55:36;15.73;;;2.80;;
7675;SDS011;3880;51.464;-2.566;2022-12-26T01:58:06;6.23;;;2.13;;
7675;SDS011;3880;51.464;-2.566;2022-12-26T02:00:37;8.40;;;2.60;;
7675;SDS011;3880;51.464;-2.566;2022-12-26T02:03:05;16.93;;;3.90;;
7675;SDS011;3880;51.464;-2.566;2022-12-26T02:05:52;11.20;;;2.90;;
7675;SDS011;3880;51.464;-2.566;2022-12-26T02:08:23;9.63;;;3.07;;
7675;SDS011;3880;51.464;-2.566;2022-12-26T02:10:55;6.33;;;2.40;;
7675;SDS011;3880;51.464;-2.566;2022-12-26T02:13:28;18.30;;;3.00;;
7675;SDS011;3880;51.464;-2.566;2022-12-26T02:15:59;13.53;;;2.90;;
7675;SDS011;3880;51.464;-2.566;2022-12-26T02:18:27;12.57;;;2.80;;
7675;SDS011;3880;51.464;-2.566;2022-12-26T02:20:57;10.70;;;3.50;;
7675;SDS011;3880;51.464;-2.566;2022-12-26T02:29:47;6.70;;;2.30;;
7675;SDS011;3880;51.464;-2.566;2022-12-26T02:32:47;7.40;;;2.83;;
7675;SDS011;3880;51.464;-2.566;2022-12-26T02:35:32;10.47;;;2.63;;
7675;SDS011;3880;51.464;-2.566;2022-12-26T02:38:13;3.20;;;1.90;;
7675;SDS011;3880;51.464;-2.566;2022-12-26T02:40:51;6.23;;;2.10;;
7675;SDS011;3880;51.464;-2.566;2022-12-26T02:43:28;5.50;;;1.77;;
7675;SDS011;3880;51.464;-2.566;2022-12-26T02:46:03;5.83;;;1.90;;
7675;SDS011;3880;51.464;-2.566;2022-12-26T02:48:56;2.70;;;1.77;;
7675;SDS011;3880;51.464;-2.566;2022-12-26T02:51:34;3.67;;;1.43;;
7675;SDS011;3880;51.464;-2.566;2022-12-26T02:54:30;3.83;;;1.40;;
7675;SDS011;3880;51.464;-2.566;2022-12-26T02:57:22;1.93;;;1.40;;
7675;SDS011;3880;51.464;-2.566;2022-12-26T03:00:11;6.93;;;2.10;;
7675;SDS011;3880;51.464;-2.566;2022-12-26T03:03:00;3.27;;;1.00;;
7675;SDS011;3880;51.464;-2.566;2022-12-26T03:05:49;1.43;;;1.33;;
7675;SDS011;3880;51.464;-2.566;2022-12-26T03:08:37;4.57;;;1.20;;
7675;SDS011;3880;51.464;-2.566;2022-12-26T03:11:27;4.20;;;1.40;;
7675;SDS011;3880;51.464;-2.566;2022-12-26T03:14:16;3.50;;;1.30;;
7675;SDS011;3880;51.464;-2.566;2022-12-26T03:16:47;4.43;;;1.43;;
7675;SDS011;3880;51.464;-2.566;2022-12-26T03:19:35;3.13;;;1.10;;
7675;SDS011;3880;51.464;-2.566;2022-12-26T03:22:23;2.17;;;1.37;;
7675;SDS011;3880;51.464;-2.566;2022-12-26T03:24:56;2.43;;;1.57;;
7675;SDS011;3880;51.464;-2.566;2022-12-26T03:27:43;1.37;;;1.30;;
7675;SDS011;3880;51.464;-2.566;2022-12-26T03:30:10;5.70;;;1.40;;
7675;SDS011;3880;51.464;-2.566;2022-12-26T03:32:54;2.33;;;1.47;;
7675;SDS011;3880;51.464;-2.566;2022-12-26T03:35:22;1.40;;;1.13;;
7675;SDS011;3880;51.464;-2.566;2022-12-26T03:37:53;1.63;;;1.10;;
7675;SDS011;3880;51.464;-2.566;2022-12-26T03:40:32;1.47;;;1.00;;
7675;SDS011;3880;51.464;-2.566;2022-12-26T03:43:45;1.77;;;0.90;;
7675;SDS011;3880;51.464;-2.566;2022-12-26T03:46:41;1.03;;;0.93;;
7675;SDS011;3880;51.464;-2.566;2022-12-26T03:49:38;5.03;;;1.40;;
7675;SDS011;3880;51.464;-2.566;2022-12-26T03:52:30;1.37;;;1.30;;
7675;SDS011;3880;51.464;-2.566;2022-12-26T03:55:23;3.77;;;1.30;;
7675;SDS011;3880;51.464;-2.566;2022-12-26T03:58:15;2.40;;;1.47;;
7675;SDS011;3880;51.464;-2.566;2022-12-26T04:01:05;2.47;;;1.20;;
7675;SDS011;3880;51.464;-2.566;2022-12-26T04:03:52;1.30;;;0.93;;
7675;SDS011;3880;51.464;-2.566;2022-12-26T04:06:40;0.90;;;0.90;;
7675;SDS011;3880;51.464;-2.566;2022-12-26T04:09:32;2.63;;;1.00;;
7675;SDS011;3880;51.464;-2.566;2022-12-26T04:12:22;1.80;;;1.10;;
7675;SDS011;3880;51.464;-2.566;2022-12-26T04:15:11;1.63;;;1.00;;
7675;SDS011;3880;51.464;-2.566;2022-12-26T04:18:03;2.37;;;1.10;;
7675;SDS011;3880;51.464;-2.566;2022-12-26T04:20:54;2.63;;;1.20;;
7675;SDS011;3880;51.464;-2.566;2022-12-26T04:23:30;5.40;;;2.17;;
7675;SDS011;3880;51.464;-2.566;2022-12-26T04:26:20;4.00;;;1.23;;
7675;SDS011;3880;51.464;-2.566;2022-12-26T04:29:11;2.63;;;1.17;;
7675;SDS011;3880;51.464;-2.566;2022-12-26T04:31:57;1.00;;;1.00;;
7675;SDS011;3880;51.464;-2.566;2022-12-26T04:34:46;2.50;;;1.13;;
7675;SDS011;3880;51.464;-2.566;2022-12-26T04:37:34;1.30;;;1.20;;
7675;SDS011;3880;51.464;-2.566;2022-12-26T04:40:25;1.40;;;1.30;;
7675;SDS011;3880;51.464;-2.566;2022-12-26T04:43:12;7.13;;;1.50;;
7675;SDS011;3880;51.464;-2.566;2022-12-26T04:45:59;3.37;;;1.17;;
7675;SDS011;3880;51.464;-2.566;2022-12-26T04:48:27;2.43;;;1.60;;
7675;SDS011;3880;51.464;-2.566;2022-12-26T04:51:11;1.10;;;1.10;;
7675;SDS011;3880;51.464;-2.566;2022-12-26T04:53:38;4.57;;;1.60;;
7675;SDS011;3880;51.464;-2.566;2022-12-26T04:56:06;7.33;;;1.87;;
7675;SDS011;3880;51.464;-2.566;2022-12-26T04:58:34;6.73;;;1.77;;
7675;SDS011;3880;51.464;-2.566;2022-12-26T05:01:02;3.27;;;1.23;;
7675;SDS011;3880;51.464;-2.566;2022-12-26T05:03:43;4.13;;;1.70;;
7675;SDS011;3880;51.464;-2.566;2022-12-26T05:06:27;6.47;;;1.30;;
7675;SDS011;3880;51.464;-2.566;2022-12-26T05:09:12;5.27;;;1.53;;
7675;SDS011;3880;51.464;-2.566;2022-12-26T05:12:08;4.87;;;2.00;;
7675;SDS011;3880;51.464;-2.566;2022-12-26T05:14:35;9.63;;;1.57;;
7675;SDS011;3880;51.464;-2.566;2022-12-26T05:17:04;3.27;;;1.73;;
7675;SDS011;3880;51.464;-2.566;2022-12-26T05:19:49;6.40;;;1.50;;
7675;SDS011;3880;51.464;-2.566;2022-12-26T05:22:35;9.17;;;2.20;;
7675;SDS011;3880;51.464;-2.566;2022-12-26T05:25:22;13.80;;;2.77;;
7675;SDS011;3880;51.464;-2.566;2022-12-26T05:28:08;3.60;;;1.50;;
7675;SDS011;3880;51.464;-2.566;2022-12-26T05:30:53;4.90;;;2.00;;
7675;SDS011;3880;51.464;-2.566;2022-12-26T05:33:22;3.93;;;2.20;;
7675;SDS011;3880;51.464;-2.566;2022-12-26T05:36:06;5.93;;;1.83;;
7675;SDS011;3880;51.464;-2.566;2022-12-26T05:38:34;6.33;;;1.60;;
7675;SDS011;3880;51.464;-2.566;2022-12-26T05:41:01;3.97;;;2.37;;
7675;SDS011;3880;51.464;-2.566;2022-12-26T05:43:28;10.40;;;2.03;;
7675;SDS011;3880;51.464;-2.566;2022-12-26T05:45:55;5.60;;;1.80;;
7675;SDS011;3880;51.464;-2.566;2022-12-26T05:48:24;5.73;;;1.87;;
7675;SDS011;3880;51.464;-2.566;2022-12-26T05:50:51;12.30;;;2.30;;
7675;SDS011;3880;51.464;-2.566;2022-12-26T05:53:18;8.10;;;2.00;;
7675;SDS011;3880;51.464;-2.566;2022-12-26T05:55:45;5.03;;;2.07;;
7675;SDS011;3880;51.464;-2.566;2022-12-26T05:58:12;14.13;;;2.90;;
7675;SDS011;3880;51.464;-2.566;2022-12-26T06:00:39;8.33;;;2.20;;
7675;SDS011;3880;51.464;-2.566;2022-12-26T06:03:06;7.57;;;2.30;;
7675;SDS011;3880;51.464;-2.566;2022-12-26T06:05:34;5.00;;;1.77;;
7675;SDS011;3880;51.464;-2.566;2022-12-26T06:08:01;5.00;;;1.90;;
7675;SDS011;3880;51.464;-2.566;2022-12-26T06:10:28;5.50;;;2.20;;
7675;SDS011;3880;51.464;-2.566;2022-12-26T06:12:55;7.13;;;2.00;;
7675;SDS011;3880;51.464;-2.566;2022-12-26T06:15:22;6.30;;;1.83;;
7675;SDS011;3880;51.464;-2.566;2022-12-26T06:17:49;6.80;;;1.73;;
7675;SDS011;3880;51.464;-2.566;2022-12-26T06:20:16;8.57;;;2.10;;
7675;SDS011;3880;51.464;-2.566;2022-12-26T06:22:45;8.53;;;1.63;;
7675;SDS011;3880;51.464;-2.566;2022-12-26T06:25:12;6.37;;;1.77;;
7675;SDS011;3880;51.464;-2.566;2022-12-26T06:27:41;4.47;;;1.87;;
7675;SDS011;3880;51.464;-2.566;2022-12-26T06:30:08;20.93;;;3.30;;
7675;SDS011;3880;51.464;-2.566;2022-12-26T06:32:36;6.00;;;1.87;;
7675;SDS011;3880;51.464;-2.566;2022-12-26T06:35:03;12.23;;;2.20;;
7675;SDS011;3880;51.464;-2.566;2022-12-26T06:37:31;9.97;;;2.57;;
7675;SDS011;3880;51.464;-2.566;2022-12-26T06:40:00;7.17;;;1.90;;
7675;SDS011;3880;51.464;-2.566;2022-12-26T06:42:27;6.03;;;2.10;;
7675;SDS011;3880;51.464;-2.566;2022-12-26T06:44:54;5.77;;;2.37;;
7675;SDS011;3880;51.464;-2.566;2022-12-26T06:47:21;9.60;;;2.80;;
7675;SDS011;3880;51.464;-2.566;2022-12-26T06:49:48;6.37;;;2.10;;
7675;SDS011;3880;51.464;-2.566;2022-12-26T06:52:15;2.40;;;1.70;;
7675;SDS011;3880;51.464;-2.566;2022-12-26T06:54:42;10.93;;;2.00;;
7675;SDS011;3880;51.464;-2.566;2022-12-26T06:57:10;3.37;;;1.90;;
7675;SDS011;3880;51.464;-2.566;2022-12-26T06:59:37;6.97;;;2.00;;
7675;SDS011;3880;51.464;-2.566;2022-12-26T07:02:04;9.57;;;2.30;;
7675;SDS011;3880;51.464;-2.566;2022-12-26T07:04:31;6.90;;;1.77;;
7675;SDS011;3880;51.464;-2.566;2022-12-26T07:06:58;3.77;;;2.00;;
7675;SDS011;3880;51.464;-2.566;2022-12-26T07:09:25;6.33;;;1.90;;
7675;SDS011;3880;51.464;-2.566;2022-12-26T07:11:52;4.40;;;2.23;;
7675;SDS011;3880;51.464;-2.566;2022-12-26T07:14:21;13.33;;;3.40;;
7675;SDS011;3880;51.464;-2.566;2022-12-26T07:16:48;7.90;;;2.77;;
7675;SDS011;3880;51.464;-2.566;2022-12-26T07:19:15;7.10;;;2.23;;
7675;SDS011;3880;51.464;-2.566;2022-12-26T07:21:42;10.57;;;2.80;;
7675;SDS011;3880;51.464;-2.566;2022-12-26T07:24:12;8.10;;;2.63;;
7675;SDS011;3880;51.464;-2.566;2022-12-26T07:26:41;6.97;;;2.00;;
7675;SDS011;3880;51.464;-2.566;2022-12-26T07:29:08;9.60;;;2.73;;
7675;SDS011;3880;51.464;-2.566;2022-12-26T07:31:37;5.83;;;2.37;;
7675;SDS011;3880;51.464;-2.566;2022-12-26T07:34:04;6.93;;;2.77;;
7675;SDS011;3880;51.464;-2.566;2022-12-26T07:36:32;13.13;;;2.63;;
7675;SDS011;3880;51.464;-2.566;2022-12-26T07:38:59;12.03;;;3.20;;
7675;SDS011;3880;51.464;-2.566;2022-12-26T07:41:27;6.30;;;2.47;;
7675;SDS011;3880;51.464;-2.566;2022-12-26T07:44:12;10.17;;;2.53;;
7675;SDS011;3880;51.464;-2.566;2022-12-26T07:46:40;8.33;;;2.87;;
7675;SDS011;3880;51.464;-2.566;2022-12-26T07:49:07;10.47;;;2.80;;
7675;SDS011;3880;51.464;-2.566;2022-12-26T07:51:36;8.57;;;2.60;;
7675;SDS011;3880;51.464;-2.566;2022-12-26T07:54:03;7.00;;;2.47;;
7675;SDS011;3880;51.464;-2.566;2022-12-26T07:56:30;9.27;;;3.30;;
7675;SDS011;3880;51.464;-2.566;2022-12-26T07:58:57;10.80;;;3.43;;
7675;SDS011;3880;51.464;-2.566;2022-12-26T08:01:24;13.67;;;5.30;;
7675;SDS011;3880;51.464;-2.566;2022-12-26T08:03:53;11.43;;;3.20;;
7675;SDS011;3880;51.464;-2.566;2022-12-26T08:06:20;7.97;;;3.10;;
7675;SDS011;3880;51.464;-2.566;2022-12-26T08:08:47;7.70;;;3.20;;
7675;SDS011;3880;51.464;-2.566;2022-12-26T08:11:16;14.70;;;3.20;;
7675;SDS011;3880;51.464;-2.566;2022-12-26T08:13:45;10.00;;;3.17;;
7675;SDS011;3880;51.464;-2.566;2022-12-26T08:16:12;12.17;;;3.33;;
7675;SDS011;3880;51.464;-2.566;2022-12-26T08:18:40;8.93;;;3.27;;
7675;SDS011;3880;51.464;-2.566;2022-12-26T08:21:09;11.77;;;4.00;;
7675;SDS011;3880;51.464;-2.566;2022-12-26T08:23:37;7.23;;;3.17;;
7675;SDS011;3880;51.464;-2.566;2022-12-26T08:26:05;9.13;;;3.33;;
7675;SDS011;3880;51.464;-2.566;2022-12-26T08:28:33;16.97;;;4.40;;
7675;SDS011;3880;51.464;-2.566;2022-12-26T08:31:03;8.80;;;3.87;;
7675;SDS011;3880;51.464;-2.566;2022-12-26T08:33:31;13.40;;;4.63;;
7675;SDS011;3880;51.464;-2.566;2022-12-26T08:35:59;11.20;;;4.23;;
7675;SDS011;3880;51.464;-2.566;2022-12-26T08:38:28;14.53;;;3.70;;
7675;SDS011;3880;51.464;-2.566;2022-12-26T08:40:55;15.40;;;4.20;;
7675;SDS011;3880;51.464;-2.566;2022-12-26T08:43:22;13.80;;;3.80;;
7675;SDS011;3880;51.464;-2.566;2022-12-26T08:45:57;13.83;;;4.90;;
7675;SDS011;3880;51.464;-2.566;2022-12-26T08:48:24;10.27;;;3.30;;
7675;SDS011;3880;51.464;-2.566;2022-12-26T08:50:55;12.07;;;4.83;;
7675;SDS011;3880;51.464;-2.566;2022-12-26T08:53:24;19.80;;;7.30;;
7675;SDS011;3880;51.464;-2.566;2022-12-26T08:55:54;17.47;;;6.17;;
7675;SDS011;3880;51.464;-2.566;2022-12-26T08:58:21;22.17;;;6.00;;
7675;SDS011;3880;51.464;-2.566;2022-12-26T09:00:48;15.50;;;5.10;;
7675;SDS011;3880;51.464;-2.566;2022-12-26T09:03:16;14.50;;;4.37;;
7675;SDS011;3880;51.464;-2.566;2022-12-26T09:05:43;15.70;;;5.00;;
7675;SDS011;3880;51.464;-2.566;2022-12-26T09:08:10;9.20;;;4.40;;
7675;SDS011;3880;51.464;-2.566;2022-12-26T09:10:37;16.83;;;4.47;;
7675;SDS011;3880;51.464;-2.566;2022-12-26T09:13:06;17.57;;;4.57;;
7675;SDS011;3880;51.464;-2.566;2022-12-26T09:15:33;10.07;;;3.93;;
7675;SDS011;3880;51.464;-2.566;2022-12-26T09:18:00;16.63;;;4.57;;
7675;SDS011;3880;51.464;-2.566;2022-12-26T09:20:27;14.13;;;4.40;;
7675;SDS011;3880;51.464;-2.566;2022-12-26T09:22:54;10.23;;;3.70;;
7675;SDS011;3880;51.464;-2.566;2022-12-26T09:25:22;13.33;;;3.90;;
7675;SDS011;3880;51.464;-2.566;2022-12-26T09:27:50;14.70;;;4.30;;
7675;SDS011;3880;51.464;-2.566;2022-12-26T09:30:20;10.27;;;3.53;;
7675;SDS011;3880;51.464;-2.566;2022-12-26T09:32:48;17.87;;;6.20;;
7675;SDS011;3880;51.464;-2.566;2022-12-26T09:35:15;14.33;;;4.53;;
7675;SDS011;3880;51.464;-2.566;2022-12-26T09:37:42;18.63;;;6.03;;
7675;SDS011;3880;51.464;-2.566;2022-12-26T09:40:16;20.23;;;5.27;;
7675;SDS011;3880;51.464;-2.566;2022-12-26T09:42:49;16.23;;;4.07;;
7675;SDS011;3880;51.464;-2.566;2022-12-26T09:45:26;18.30;;;4.97;;
7675;SDS011;3880;51.464;-2.566;2022-12-26T09:48:03;17.37;;;5.70;;
7675;SDS011;3880;51.464;-2.566;2022-12-26T09:50:35;17.93;;;4.87;;
7675;SDS011;3880;51.464;-2.566;2022-12-26T09:53:04;15.10;;;4.53;;
7675;SDS011;3880;51.464;-2.566;2022-12-26T09:55:36;16.60;;;4.50;;
7675;SDS011;3880;51.464;-2.566;2022-12-26T09:58:10;12.73;;;4.60;;
7675;SDS011;3880;51.464;-2.566;2022-12-26T10:00:47;10.73;;;4.23;;
7675;SDS011;3880;51.464;-2.566;2022-12-26T10:03:17;13.13;;;3.90;;
7675;SDS011;3880;51.464;-2.566;2022-12-26T10:05:50;14.23;;;4.20;;
7675;SDS011;3880;51.464;-2.566;2022-12-26T10:08:29;13.47;;;4.50;;
7675;SDS011;3880;51.464;-2.566;2022-12-26T10:11:09;13.17;;;3.47;;
7675;SDS011;3880;51.464;-2.566;2022-12-26T10:13:45;14.97;;;3.30;;
7675;SDS011;3880;51.464;-2.566;2022-12-26T10:16:18;16.03;;;4.17;;
7675;SDS011;3880;51.464;-2.566;2022-12-26T10:18:51;11.53;;;3.50;;
7675;SDS011;3880;51.464;-2.566;2022-12-26T10:21:38;11.83;;;3.47;;
7675;SDS011;3880;51.464;-2.566;2022-12-26T10:24:13;7.33;;;3.30;;
7675;SDS011;3880;51.464;-2.566;2022-12-26T10:26:43;14.00;;;4.33;;
7675;SDS011;3880;51.464;-2.566;2022-12-26T10:29:16;7.90;;;3.70;;
7675;SDS011;3880;51.464;-2.566;2022-12-26T10:31:49;12.83;;;4.37;;
7675;SDS011;3880;51.464;-2.566;2022-12-26T10:34:20;11.40;;;3.53;;
7675;SDS011;3880;51.464;-2.566;2022-12-26T10:36:52;13.70;;;4.10;;
7675;SDS011;3880;51.464;-2.566;2022-12-26T10:39:25;11.07;;;3.93;;
7675;SDS011;3880;51.464;-2.566;2022-12-26T10:41:57;10.80;;;3.97;;
7675;SDS011;3880;51.464;-2.566;2022-12-26T10:44:27;10.90;;;3.67;;
7675;SDS011;3880;51.464;-2.566;2022-12-26T10:47:02;9.63;;;3.53;;
7675;SDS011;3880;51.464;-2.566;2022-12-26T10:49:40;12.33;;;5.00;;
7675;SDS011;3880;51.464;-2.566;2022-12-26T10:52:10;15.30;;;3.57;;
7675;SDS011;3880;51.464;-2.566;2022-12-26T10:54:38;8.33;;;3.00;;
7675;SDS011;3880;51.464;-2.566;2022-12-26T10:57:06;6.93;;;3.30;;
7675;SDS011;3880;51.464;-2.566;2022-12-26T10:59:38;7.47;;;2.80;;
7675;SDS011;3880;51.464;-2.566;2022-12-26T11:02:12;7.67;;;2.80;;
7675;SDS011;3880;51.464;-2.566;2022-12-26T11:04:59;7.13;;;2.70;;
7675;SDS011;3880;51.464;-2.566;2022-12-26T11:07:34;4.77;;;2.23;;
7675;SDS011;3880;51.464;-2.566;2022-12-26T11:10:04;9.70;;;3.67;;
7675;SDS011;3880;51.464;-2.566;2022-12-26T11:12:40;10.07;;;3.37;;
7675;SDS011;3880;51.464;-2.566;2022-12-26T11:15:18;8.33;;;2.30;;
7675;SDS011;3880;51.464;-2.566;2022-12-26T11:17:50;5.63;;;2.70;;
7675;SDS011;3880;51.464;-2.566;2022-12-26T11:20:23;7.73;;;2.43;;
7675;SDS011;3880;51.464;-2.566;2022-12-26T11:22:52;7.30;;;2.20;;
7675;SDS011;3880;51.464;-2.566;2022-12-26T11:25:21;8.00;;;2.13;;
7675;SDS011;3880;51.464;-2.566;2022-12-26T11:27:50;6.53;;;2.60;;
7675;SDS011;3880;51.464;-2.566;2022-12-26T11:30:25;8.37;;;2.30;;
7675;SDS011;3880;51.464;-2.566;2022-12-26T11:33:04;4.47;;;2.33;;
7675;SDS011;3880;51.464;-2.566;2022-12-26T11:35:36;8.00;;;2.80;;
7675;SDS011;3880;51.464;-2.566;2022-12-26T11:38:12;10.13;;;2.77;;
7675;SDS011;3880;51.464;-2.566;2022-12-26T11:40:59;12.27;;;4.83;;
7675;SDS011;3880;51.464;-2.566;2022-12-26T11:43:44;8.03;;;4.57;;
7675;SDS011;3880;51.464;-2.566;2022-12-26T11:46:12;3.47;;;2.43;;
7675;SDS011;3880;51.464;-2.566;2022-12-26T11:48:41;7.47;;;2.57;;
7675;SDS011;3880;51.464;-2.566;2022-12-26T11:51:15;7.33;;;2.67;;
7675;SDS011;3880;51.464;-2.566;2022-12-26T11:53:42;9.87;;;2.80;;
7675;SDS011;3880;51.464;-2.566;2022-12-26T11:56:09;6.37;;;2.53;;
7675;SDS011;3880;51.464;-2.566;2022-12-26T11:58:36;5.90;;;2.40;;
7675;SDS011;3880;51.464;-2.566;2022-12-26T12:01:09;3.47;;;1.57;;
7675;SDS011;3880;51.464;-2.566;2022-12-26T12:03:42;2.87;;;1.30;;
7675;SDS011;3880;51.464;-2.566;2022-12-26T12:06:21;2.87;;;1.60;;
7675;SDS011;3880;51.464;-2.566;2022-12-26T12:09:05;4.97;;;1.40;;
7675;SDS011;3880;51.464;-2.566;2022-12-26T12:11:41;4.23;;;1.43;;
7675;SDS011;3880;51.464;-2.566;2022-12-26T12:14:20;5.37;;;1.67;;
7675;SDS011;3880;51.464;-2.566;2022-12-26T12:17:06;6.37;;;1.60;;
7675;SDS011;3880;51.464;-2.566;2022-12-26T12:19:47;4.63;;;1.83;;
7675;SDS011;3880;51.464;-2.566;2022-12-26T12:25:23;4.27;;;1.70;;
7675;SDS011;3880;51.464;-2.566;2022-12-26T12:27:58;6.40;;;1.77;;
7675;SDS011;3880;51.464;-2.566;2022-12-26T12:30:33;2.70;;;1.53;;
7675;SDS011;3880;51.464;-2.566;2022-12-26T12:33:11;4.83;;;1.70;;
7675;SDS011;3880;51.464;-2.566;2022-12-26T12:36:00;20.37;;;2.30;;
7675;SDS011;3880;51.464;-2.566;2022-12-26T12:38:34;8.83;;;2.27;;
7675;SDS011;3880;51.464;-2.566;2022-12-26T12:41:17;2.10;;;1.27;;
7675;SDS011;3880;51.464;-2.566;2022-12-26T12:43:59;10.03;;;2.03;;
7675;SDS011;3880;51.464;-2.566;2022-12-26T12:46:31;3.97;;;1.50;;
7675;SDS011;3880;51.464;-2.566;2022-12-26T12:49:13;6.50;;;1.67;;
7675;SDS011;3880;51.464;-2.566;2022-12-26T12:52:02;2.83;;;1.77;;
7675;SDS011;3880;51.464;-2.566;2022-12-26T12:54:53;4.27;;;1.60;;
7675;SDS011;3880;51.464;-2.566;2022-12-26T12:57:32;4.90;;;1.40;;
7675;SDS011;3880;51.464;-2.566;2022-12-26T13:00:10;6.53;;;2.00;;
7675;SDS011;3880;51.464;-2.566;2022-12-26T13:02:41;5.63;;;2.23;;
7675;SDS011;3880;51.464;-2.566;2022-12-26T13:05:19;4.23;;;1.70;;
7675;SDS011;3880;51.464;-2.566;2022-12-26T13:07:56;4.17;;;1.80;;
7675;SDS011;3880;51.464;-2.566;2022-12-26T13:10:28;4.70;;;1.60;;
7675;SDS011;3880;51.464;-2.566;2022-12-26T13:12:58;9.80;;;1.47;;
7675;SDS011;3880;51.464;-2.566;2022-12-26T13:15:39;5.40;;;2.50;;
7675;SDS011;3880;51.464;-2.566;2022-12-26T13:18:10;4.33;;;1.87;;
7675;SDS011;3880;51.464;-2.566;2022-12-26T13:20:41;2.10;;;1.53;;
7675;SDS011;3880;51.464;-2.566;2022-12-26T13:23:12;6.93;;;1.83;;
7675;SDS011;3880;51.464;-2.566;2022-12-26T13:26:07;3.37;;;1.33;;
7675;SDS011;3880;51.464;-2.566;2022-12-26T13:28:38;6.23;;;2.17;;
7675;SDS011;3880;51.464;-2.566;2022-12-26T13:31:11;7.03;;;1.73;;
7675;SDS011;3880;51.464;-2.566;2022-12-26T13:33:40;5.30;;;1.83;;
7675;SDS011;3880;51.464;-2.566;2022-12-26T13:36:08;4.33;;;2.10;;
7675;SDS011;3880;51.464;-2.566;2022-12-26T13:41:57;5.77;;;1.90;;
7675;SDS011;3880;51.464;-2.566;2022-12-26T13:44:45;5.10;;;1.27;;
7675;SDS011;3880;51.464;-2.566;2022-12-26T13:47:30;11.37;;;2.80;;
7675;SDS011;3880;51.464;-2.566;2022-12-26T13:52:59;6.77;;;1.80;;
7675;SDS011;3880;51.464;-2.566;2022-12-26T13:55:29;2.40;;;2.20;;
7675;SDS011;3880;51.464;-2.566;2022-12-26T14:00:59;5.00;;;1.83;;
7675;SDS011;3880;51.464;-2.566;2022-12-26T14:03:35;5.67;;;1.73;;
7675;SDS011;3880;51.464;-2.566;2022-12-26T14:06:32;4.50;;;1.80;;
7675;SDS011;3880;51.464;-2.566;2022-12-26T14:09:18;3.50;;;1.60;;
7675;SDS011;3880;51.464;-2.566;2022-12-26T14:11:58;4.50;;;1.60;;
7675;SDS011;3880;51.464;-2.566;2022-12-26T14:14:38;7.50;;;1.83;;
7675;SDS011;3880;51.464;-2.566;2022-12-26T14:17:18;9.53;;;1.87;;
7675;SDS011;3880;51.464;-2.566;2022-12-26T14:19:54;7.80;;;1.70;;
7675;SDS011;3880;51.464;-2.566;2022-12-26T14:22:29;8.07;;;1.80;;
7675;SDS011;3880;51.464;-2.566;2022-12-26T14:25:11;5.50;;;1.70;;
7675;SDS011;3880;51.464;-2.566;2022-12-26T14:27:47;1.87;;;1.30;;
7675;SDS011;3880;51.464;-2.566;2022-12-26T14:30:21;4.50;;;2.00;;
7675;SDS011;3880;51.464;-2.566;2022-12-26T14:33:01;5.67;;;1.77;;
7675;SDS011;3880;51.464;-2.566;2022-12-26T14:35:45;6.13;;;2.60;;
7675;SDS011;3880;51.464;-2.566;2022-12-26T14:38:21;2.30;;;1.70;;
7675;SDS011;3880;51.464;-2.566;2022-12-26T14:40:59;5.80;;;2.27;;
7675;SDS011;3880;51.464;-2.566;2022-12-26T14:43:32;6.10;;;1.87;;
7675;SDS011;3880;51.464;-2.566;2022-12-26T14:46:03;5.00;;;2.00;;
7675;SDS011;3880;51.464;-2.566;2022-12-26T14:48:41;5.37;;;2.13;;
7675;SDS011;3880;51.464;-2.566;2022-12-26T14:51:30;5.33;;;2.13;;
7675;SDS011;3880;51.464;-2.566;2022-12-26T14:57:00;10.60;;;3.60;;
7675;SDS011;3880;51.464;-2.566;2022-12-26T14:59:28;6.43;;;2.50;;
7675;SDS011;3880;51.464;-2.566;2022-12-26T15:02:05;8.97;;;3.30;;
7675;SDS011;3880;51.464;-2.566;2022-12-26T15:17:00;7.37;;;2.63;;
7675;SDS011;3880;51.464;-2.566;2022-12-26T15:23:04;18.60;;;7.17;;
7675;SDS011;3880;51.464;-2.566;2022-12-26T15:25:56;6.33;;;3.50;;
7675;SDS011;3880;51.464;-2.566;2022-12-26T15:31:49;5.83;;;2.90;;
7675;SDS011;3880;51.464;-2.566;2022-12-26T15:34:41;9.13;;;2.63;;
7675;SDS011;3880;51.464;-2.566;2022-12-26T15:37:17;8.97;;;2.47;;
7675;SDS011;3880;51.464;-2.566;2022-12-26T15:39:55;9.20;;;2.80;;
7675;SDS011;3880;51.464;-2.566;2022-12-26T15:42:33;7.47;;;2.60;;
7675;SDS011;3880;51.464;-2.566;2022-12-26T15:45:12;8.93;;;2.77;;
7675;SDS011;3880;51.464;-2.566;2022-12-26T15:47:54;6.13;;;2.10;;
7675;SDS011;3880;51.464;-2.566;2022-12-26T15:50:29;8.30;;;2.73;;
7675;SDS011;3880;51.464;-2.566;2022-12-26T15:53:03;8.57;;;3.13;;
7675;SDS011;3880;51.464;-2.566;2022-12-26T15:55:45;5.63;;;2.47;;
7675;SDS011;3880;51.464;-2.566;2022-12-26T15:58:37;6.13;;;2.73;;
7675;SDS011;3880;51.464;-2.566;2022-12-26T16:01:37;13.83;;;3.13;;
7675;SDS011;3880;51.464;-2.566;2022-12-26T16:04:06;4.60;;;2.73;;
7675;SDS011;3880;51.464;-2.566;2022-12-26T16:06:47;6.77;;;2.47;;
7675;SDS011;3880;51.464;-2.566;2022-12-26T16:09:26;7.30;;;2.80;;
7675;SDS011;3880;51.464;-2.566;2022-12-26T16:12:01;10.23;;;2.43;;
7675;SDS011;3880;51.464;-2.566;2022-12-26T16:14:42;7.10;;;2.53;;
7675;SDS011;3880;51.464;-2.566;2022-12-26T16:17:17;7.73;;;2.60;;
7675;SDS011;3880;51.464;-2.566;2022-12-26T16:19:47;5.10;;;2.20;;
7675;SDS011;3880;51.464;-2.566;2022-12-26T16:22:17;8.50;;;2.53;;